createdAt,value
2018-08-04T00:00:28.490Z,24.20
2018-08-04T00:02:56.695Z,24.10
2018-08-04T00:05:24.817Z,24.10
2018-08-04T00:07:52.954Z,24.00
2018-08-04T00:10:21.843Z,24.00
2018-08-04T00:12:51.114Z,24.00
2018-08-04T00:15:19.530Z,24.00
2018-08-04T00:17:48.532Z,24.00
2018-08-04T00:20:16.950Z,24.00
2018-08-04T00:22:45.090Z,24.00
2018-08-04T00:25:13.254Z,24.00
2018-08-04T00:27:41.439Z,24.00
2018-08-04T00:30:12.933Z,24.00
2018-08-04T00:32:41.756Z,23.90
2018-08-04T00:35:10.504Z,23.90
2018-08-04T00:37:38.696Z,23.80
2018-08-04T00:40:08.906Z,23.70
2018-08-04T00:42:37.002Z,23.70
2018-08-04T00:45:05.284Z,23.70
2018-08-04T00:47:33.440Z,23.60
2018-08-04T00:50:01.575Z,23.50
2018-08-04T00:52:29.790Z,23.50
2018-08-04T00:54:57.892Z,23.50
2018-08-04T00:59:54.018Z,23.60
2018-08-04T01:02:22.150Z,23.60
2018-08-04T01:04:50.310Z,23.70
2018-08-04T01:09:46.327Z,23.60
2018-08-04T01:12:14.466Z,23.50
2018-08-04T01:14:42.655Z,23.40
2018-08-04T01:17:10.849Z,23.40
2018-08-04T01:19:38.994Z,23.30
2018-08-04T01:22:07.150Z,23.20
2018-08-04T01:27:03.193Z,23.20
2018-08-04T01:29:31.374Z,23.20
2018-08-04T01:31:59.457Z,23.10
2018-08-04T01:34:27.587Z,23.00
2018-08-04T01:36:55.716Z,22.90
2018-08-04T01:39:23.811Z,22.80
2018-08-04T01:41:51.918Z,22.70
2018-08-04T01:44:20.030Z,22.80
2018-08-04T01:46:48.149Z,22.80
2018-08-04T01:49:16.262Z,22.70
2018-08-04T01:51:44.407Z,22.80
2018-08-04T01:54:12.583Z,22.80
2018-08-04T01:56:40.699Z,22.80
2018-08-04T01:59:08.915Z,22.80
2018-08-04T02:01:37.063Z,22.70
2018-08-04T02:04:05.314Z,22.80
2018-08-04T02:06:33.515Z,23.00
2018-08-04T02:09:01.643Z,23.00
2018-08-04T02:11:29.786Z,23.10
2018-08-04T02:13:57.909Z,23.00
2018-08-04T02:16:26.075Z,23.00
2018-08-04T02:18:54.190Z,23.00
2018-08-04T02:21:22.387Z,23.00
2018-08-04T02:23:50.489Z,23.00
2018-08-04T02:28:46.552Z,23.00
2018-08-04T02:31:14.652Z,23.00
2018-08-04T02:33:42.776Z,22.90
2018-08-04T02:36:10.927Z,22.80
2018-08-04T02:38:39.014Z,22.70
2018-08-04T02:41:07.218Z,22.60
2018-08-04T02:43:35.367Z,22.50
2018-08-04T02:46:03.523Z,22.40
2018-08-04T02:48:31.671Z,22.30
2018-08-04T02:50:59.807Z,22.30
2018-08-04T02:53:27.953Z,22.30
2018-08-04T02:55:56.115Z,22.30
2018-08-04T02:58:24.243Z,22.30
2018-08-04T03:00:52.423Z,22.30
2018-08-04T03:03:20.579Z,22.30
2018-08-04T03:05:48.727Z,22.20
2018-08-04T03:08:16.851Z,22.20
2018-08-04T03:10:44.973Z,22.20
2018-08-04T03:13:13.126Z,22.20
2018-08-04T03:15:41.261Z,22.40
2018-08-04T03:18:09.390Z,22.40
2018-08-04T03:20:37.563Z,22.40
2018-08-04T03:23:05.678Z,22.40
2018-08-04T03:25:33.823Z,22.40
2018-08-04T03:28:01.951Z,22.40
2018-08-04T03:30:30.099Z,22.40
2018-08-04T03:32:58.213Z,22.40
2018-08-04T03:35:26.322Z,22.30
2018-08-04T03:37:54.471Z,22.30
2018-08-04T03:40:22.616Z,22.20
2018-08-04T03:42:50.747Z,22.20
2018-08-04T03:45:18.890Z,22.30
2018-08-04T03:47:47.051Z,22.30
2018-08-04T03:50:15.159Z,22.30
2018-08-04T03:52:43.278Z,22.30
2018-08-04T03:55:11.423Z,22.40
2018-08-04T03:57:39.544Z,22.50
2018-08-04T04:00:07.800Z,22.50
2018-08-04T04:02:36.105Z,22.60
2018-08-04T04:05:04.247Z,22.70
2018-08-04T04:07:32.379Z,22.80
2018-08-04T04:10:00.491Z,22.80
2018-08-04T04:12:28.643Z,22.80
2018-08-04T04:14:56.775Z,22.70
2018-08-04T04:17:24.976Z,22.60
2018-08-04T04:19:53.124Z,22.60
2018-08-04T04:24:49.156Z,22.70
2018-08-04T04:27:17.281Z,22.70
2018-08-04T04:29:45.469Z,22.70
2018-08-04T04:32:13.563Z,22.70
2018-08-04T04:34:41.723Z,22.70
2018-08-04T04:37:09.864Z,22.80
2018-08-04T04:44:33.922Z,22.70
2018-08-04T04:47:02.072Z,22.70
2018-08-04T04:49:30.148Z,22.70
2018-08-04T04:51:58.331Z,22.70
2018-08-04T04:54:26.451Z,22.80
2018-08-04T04:56:54.583Z,22.80
2018-08-04T04:59:22.721Z,22.70
2018-08-04T05:01:50.938Z,22.50
2018-08-04T05:04:19.015Z,22.40
2018-08-04T05:06:47.158Z,22.20
2018-08-04T05:09:15.768Z,22.10
2018-08-04T05:11:43.924Z,22.10
2018-08-04T05:14:12.028Z,22.00
2018-08-04T05:16:40.207Z,22.10
2018-08-04T05:19:08.315Z,22.30
2018-08-04T05:21:36.493Z,22.50
2018-08-04T05:24:04.604Z,22.70
2018-08-04T05:26:32.703Z,22.90
2018-08-04T05:29:00.823Z,23.00
2018-08-04T05:31:28.926Z,23.10
2018-08-04T05:33:57.067Z,23.20
2018-08-04T05:36:25.220Z,23.40
2018-08-04T05:38:53.326Z,23.50
2018-08-04T05:41:21.522Z,23.60
2018-08-04T05:43:49.743Z,23.60
2018-08-04T05:46:21.635Z,23.70
2018-08-04T05:48:49.756Z,23.70
2018-08-04T05:51:17.881Z,23.70
2018-08-04T05:53:46.109Z,23.70
2018-08-04T05:56:14.223Z,23.70
2018-08-04T05:58:42.714Z,23.70
2018-08-04T06:01:10.831Z,23.70
2018-08-04T06:03:39.199Z,23.70
2018-08-04T06:06:07.559Z,23.70
2018-08-04T06:08:35.739Z,23.80
2018-08-04T06:13:31.809Z,23.90
2018-08-04T06:15:59.978Z,23.90
2018-08-04T06:20:56.040Z,23.90
2018-08-04T06:23:24.192Z,23.80
2018-08-04T06:25:52.283Z,23.80
2018-08-04T06:28:20.439Z,23.80
2018-08-04T06:30:48.617Z,23.80
2018-08-04T06:33:16.795Z,23.90
2018-08-04T06:35:44.880Z,24.00
2018-08-04T06:38:12.983Z,24.00
2018-08-04T06:40:41.095Z,24.10
2018-08-04T06:43:09.198Z,24.20
2018-08-04T06:45:37.308Z,24.30
2018-08-04T06:48:05.595Z,24.40
2018-08-04T06:50:33.723Z,24.50
2018-08-04T06:53:01.819Z,24.60
2018-08-04T06:55:29.911Z,24.80
2018-08-04T06:57:58.055Z,25.00
2018-08-04T07:00:26.427Z,25.20
2018-08-04T07:02:54.647Z,25.40
2018-08-04T07:05:22.751Z,25.60
2018-08-04T07:07:51.172Z,25.60
2018-08-04T07:10:19.295Z,25.80
2018-08-04T07:12:47.470Z,26.00
2018-08-04T07:17:43.660Z,26.40
2018-08-04T07:20:11.752Z,26.50
2018-08-04T07:22:39.882Z,26.70
2018-08-04T07:25:07.980Z,27.00
2018-08-04T07:27:36.223Z,27.20
2018-08-04T07:30:07.945Z,27.40
2018-08-04T07:32:36.827Z,27.70
2018-08-04T07:35:08.373Z,28.00
2018-08-04T07:42:33.563Z,28.90
2018-08-04T07:45:02.317Z,29.20
2018-08-04T07:47:31.154Z,29.60
2018-08-04T07:49:59.264Z,30.00
2018-08-04T07:54:55.455Z,30.80
2018-08-04T07:57:23.683Z,31.50
2018-08-04T07:59:51.846Z,32.10
2018-08-04T08:02:20.149Z,32.80
2018-08-04T08:04:48.287Z,33.30
2018-08-04T08:07:17.120Z,33.60
2018-08-04T08:09:45.420Z,33.70
2018-08-04T08:12:13.553Z,34.00
2018-08-04T08:14:41.840Z,34.20
2018-08-04T08:17:10.507Z,34.60
2018-08-04T08:19:38.632Z,34.90
2018-08-04T08:22:06.753Z,34.50
2018-08-04T08:24:34.930Z,34.30
2018-08-04T08:27:03.059Z,34.40
2018-08-04T08:29:31.178Z,34.70
2018-08-04T08:31:59.315Z,35.20
2018-08-04T08:34:27.443Z,35.50
2018-08-04T08:36:55.555Z,35.60
2018-08-04T08:39:23.698Z,35.40
2018-08-04T08:41:51.864Z,35.00
2018-08-04T08:44:20.657Z,34.30
2018-08-04T08:46:48.738Z,34.20
2018-08-04T08:49:16.839Z,34.00
2018-08-04T08:51:44.956Z,33.70
2018-08-04T08:54:13.137Z,33.50
2018-08-04T08:56:41.290Z,33.70
2018-08-04T08:59:09.401Z,33.20
2018-08-04T09:01:37.507Z,33.30
2018-08-04T09:04:06.003Z,33.30
2018-08-04T09:06:34.119Z,33.50
2018-08-04T09:11:30.160Z,34.10
2018-08-04T09:16:26.938Z,34.60
2018-08-04T09:18:55.052Z,34.90
2018-08-04T09:21:23.213Z,35.10
2018-08-04T09:23:51.305Z,35.40
2018-08-04T09:26:19.414Z,35.50
2018-08-04T09:28:47.522Z,35.70
2018-08-04T09:31:15.655Z,35.80
2018-08-04T09:33:43.751Z,36.00
2018-08-04T09:36:11.851Z,36.20
2018-08-04T09:38:39.968Z,36.30
2018-08-04T09:41:08.147Z,36.40
2018-08-04T09:43:36.255Z,36.30
2018-08-04T09:46:04.593Z,36.30
2018-08-04T09:48:32.692Z,36.30
2018-08-04T09:51:00.805Z,36.20
2018-08-04T09:53:28.867Z,36.10
2018-08-04T09:55:56.995Z,36.10
2018-08-04T09:58:25.102Z,36.00
2018-08-04T10:00:58.672Z,35.90
2018-08-04T10:03:26.810Z,35.80
2018-08-04T10:05:54.907Z,35.80
2018-08-04T10:08:23.055Z,35.60
2018-08-04T10:10:51.252Z,35.40
2018-08-04T10:13:20.415Z,35.10
2018-08-04T10:15:48.623Z,34.80
2018-08-04T10:18:16.707Z,34.40
2018-08-04T10:20:44.807Z,34.20
2018-08-04T10:25:47.551Z,33.30
2018-08-04T10:28:16.079Z,33.20
2018-08-04T10:30:44.199Z,33.00
2018-08-04T10:33:12.337Z,33.00
2018-08-04T10:35:40.465Z,33.00
2018-08-04T10:38:08.523Z,33.00
2018-08-04T10:40:36.759Z,32.90
2018-08-04T10:43:04.839Z,32.30
2018-08-04T10:45:32.948Z,32.00
2018-08-04T10:48:01.078Z,32.00
2018-08-04T10:50:29.173Z,32.00
2018-08-04T10:52:57.326Z,32.00
2018-08-04T10:55:25.415Z,32.00
2018-08-04T10:57:53.540Z,31.90
2018-08-04T11:00:21.743Z,31.90
2018-08-04T11:02:49.871Z,31.60
2018-08-04T11:05:18.007Z,31.40
2018-08-04T11:07:46.219Z,31.40
2018-08-04T11:10:14.363Z,31.50
2018-08-04T11:12:42.442Z,31.60
2018-08-04T11:15:10.528Z,31.70
2018-08-04T11:18:00.026Z,31.60
2018-08-04T11:20:28.127Z,31.50
2018-08-04T11:22:56.177Z,31.60
2018-08-04T11:27:52.164Z,31.70
2018-08-04T11:30:20.217Z,31.60
2018-08-04T11:32:48.287Z,31.70
2018-08-04T11:35:16.345Z,31.70
2018-08-04T11:37:44.429Z,31.80
2018-08-04T11:40:12.483Z,31.80
2018-08-04T11:42:40.523Z,31.70
2018-08-04T11:45:08.571Z,31.60
2018-08-04T11:47:36.693Z,31.40
2018-08-04T11:50:04.967Z,31.30
2018-08-04T11:52:33.071Z,31.10
2018-08-04T11:55:01.196Z,31.00
2018-08-04T11:57:29.391Z,31.10
2018-08-04T11:59:58.570Z,31.00
2018-08-04T12:02:26.843Z,31.00
2018-08-04T12:04:54.920Z,31.00
2018-08-04T12:07:23.056Z,30.90
2018-08-04T12:09:51.324Z,30.70
2018-08-04T12:12:19.413Z,30.60
2018-08-04T12:14:47.611Z,30.60
2018-08-04T12:17:15.744Z,30.50
2018-08-04T12:19:43.854Z,30.50
2018-08-04T12:22:11.971Z,30.40
2018-08-04T12:24:40.099Z,30.40
2018-08-04T12:27:08.219Z,30.40
2018-08-04T12:29:36.306Z,30.40
2018-08-04T12:32:04.423Z,30.20
2018-08-04T12:34:32.534Z,30.20
2018-08-04T12:37:00.635Z,30.20
2018-08-04T12:39:28.769Z,30.10
2018-08-04T12:44:25.596Z,30.00
2018-08-04T12:46:53.700Z,29.90
2018-08-04T13:03:40.548Z,29.80
2018-08-04T13:06:08.668Z,29.70
2018-08-04T13:11:04.788Z,29.70
2018-08-04T13:13:32.973Z,29.70
2018-08-04T13:16:01.157Z,29.70
2018-08-04T13:18:29.295Z,29.70
2018-08-04T13:20:57.445Z,29.70
2018-08-04T13:23:25.591Z,29.60
2018-08-04T13:25:53.760Z,29.70
2018-08-04T13:28:21.905Z,29.60
2018-08-04T13:31:11.633Z,29.70
2018-08-04T13:33:39.692Z,29.70
2018-08-04T13:36:07.728Z,29.70
2018-08-04T13:38:35.853Z,29.70
2018-08-04T13:41:03.901Z,29.70
2018-08-04T13:43:32.019Z,29.70
2018-08-04T13:46:00.035Z,29.60
2018-08-04T13:48:28.185Z,29.60
2018-08-04T13:50:56.249Z,29.60
2018-08-04T13:53:24.285Z,29.60
2018-08-04T13:55:52.433Z,29.60
2018-08-04T13:58:20.468Z,29.50
2018-08-04T14:00:48.517Z,29.40
2018-08-04T14:03:16.633Z,29.40
2018-08-04T14:05:44.727Z,29.40
2018-08-04T14:08:12.745Z,29.40
2018-08-04T14:10:40.790Z,29.40
2018-08-04T14:13:08.949Z,29.50
2018-08-04T14:15:36.989Z,29.40
2018-08-04T14:18:05.369Z,29.40
2018-08-04T14:20:33.443Z,29.40
2018-08-04T14:23:01.465Z,29.40
2018-08-04T14:25:29.605Z,29.40
2018-08-04T14:27:57.689Z,29.40
2018-08-04T14:30:25.740Z,29.30
2018-08-04T14:32:53.988Z,29.30
2018-08-04T14:35:22.012Z,29.30
2018-08-04T14:37:50.116Z,29.20
2018-08-04T14:40:18.161Z,29.20
2018-08-04T14:42:46.251Z,29.20
2018-08-04T14:45:14.248Z,29.30
2018-08-04T14:47:42.279Z,29.30
2018-08-04T14:50:10.305Z,29.30
2018-08-04T14:52:38.510Z,29.30
2018-08-04T14:55:06.593Z,29.30
2018-08-04T14:57:34.688Z,29.30
2018-08-04T15:00:02.738Z,29.30
2018-08-04T15:02:30.773Z,29.30
2018-08-04T15:04:58.882Z,29.30
2018-08-04T15:07:26.937Z,29.30
2018-08-04T15:09:55.046Z,29.20
2018-08-04T15:12:23.211Z,29.20
2018-08-04T15:14:51.240Z,29.10
2018-08-04T15:17:19.370Z,29.10
2018-08-04T15:19:47.426Z,29.20
2018-08-04T15:22:15.477Z,29.20
2018-08-04T15:24:43.532Z,29.10
2018-08-04T15:29:39.498Z,29.10
2018-08-04T15:32:07.522Z,29.10
2018-08-04T15:34:35.645Z,29.10
2018-08-04T15:37:03.739Z,29.10
2018-08-04T15:39:31.856Z,29.10
2018-08-04T15:41:59.983Z,29.10
2018-08-04T15:44:28.096Z,29.10
2018-08-04T15:46:56.636Z,29.10
2018-08-04T15:49:24.739Z,29.00
2018-08-04T15:51:53.010Z,29.10
2018-08-04T15:54:21.097Z,29.10
2018-08-04T15:56:49.199Z,29.10
2018-08-04T15:59:17.340Z,29.00
2018-08-04T16:01:45.424Z,29.00
2018-08-04T16:04:13.529Z,28.90
2018-08-04T16:06:41.655Z,28.90
2018-08-04T16:09:10.865Z,28.80
2018-08-04T16:11:39.861Z,28.80
2018-08-04T16:14:08.424Z,28.80
2018-08-04T16:16:36.735Z,28.80
2018-08-04T16:19:04.836Z,28.70
2018-08-04T16:21:33.648Z,28.70
2018-08-04T16:24:01.752Z,28.60
2018-08-04T16:26:32.302Z,28.50
2018-08-04T16:29:00.673Z,28.50
2018-08-04T16:31:28.777Z,28.50
2018-08-04T16:33:56.864Z,28.40
2018-08-04T16:36:24.975Z,28.40
2018-08-04T16:38:53.108Z,28.40
2018-08-04T16:41:21.199Z,28.30
2018-08-04T16:43:49.276Z,28.30
2018-08-04T16:46:18.175Z,28.30
2018-08-04T16:48:46.314Z,28.20
2018-08-04T16:51:14.410Z,28.10
2018-08-04T16:53:42.535Z,28.10
2018-08-04T16:56:10.631Z,28.00
2018-08-04T16:58:38.719Z,28.00
2018-08-04T17:01:07.008Z,28.00
2018-08-04T17:03:35.119Z,28.00
2018-08-04T17:06:04.368Z,28.00
2018-08-04T17:08:32.511Z,27.90
2018-08-04T17:11:00.605Z,27.90
2018-08-04T17:13:28.701Z,27.90
2018-08-04T17:15:56.812Z,27.80
2018-08-04T17:18:25.002Z,27.70
2018-08-04T17:20:53.044Z,27.70
2018-08-04T17:23:21.144Z,27.70
2018-08-04T17:25:49.376Z,27.70
2018-08-04T17:28:17.483Z,27.70
2018-08-04T17:30:45.586Z,27.70
2018-08-04T17:33:13.674Z,27.60
2018-08-04T17:35:41.772Z,27.50
2018-08-04T17:38:09.897Z,27.50
2018-08-04T17:40:38.034Z,27.40
2018-08-04T17:43:06.295Z,27.30
2018-08-04T17:45:34.363Z,27.20
2018-08-04T17:48:02.458Z,27.10
2018-08-04T17:50:30.660Z,27.10
2018-08-04T17:52:58.778Z,26.90
2018-08-04T17:55:27.050Z,26.80
2018-08-04T17:57:55.299Z,26.70
2018-08-04T18:02:51.376Z,26.50
2018-08-04T18:05:19.525Z,26.40
2018-08-04T18:07:47.687Z,26.30
2018-08-04T18:10:15.796Z,26.30
2018-08-04T18:12:43.999Z,26.30
2018-08-04T18:15:12.232Z,26.20
2018-08-04T18:17:40.344Z,26.20
2018-08-04T18:20:08.452Z,26.20
2018-08-04T18:22:36.596Z,26.20
2018-08-04T18:25:04.762Z,26.20
2018-08-04T18:27:39.421Z,26.10
2018-08-04T18:30:07.554Z,26.10
2018-08-04T18:32:35.619Z,26.10
2018-08-04T18:35:03.757Z,26.10
2018-08-04T18:37:31.840Z,26.00
2018-08-04T18:39:59.965Z,26.00
2018-08-04T18:42:28.070Z,26.00
2018-08-04T18:44:56.152Z,26.00
2018-08-04T18:47:24.261Z,25.90
2018-08-04T18:49:52.364Z,25.90
2018-08-04T18:52:20.456Z,25.90
2018-08-04T18:54:48.612Z,25.80
2018-08-04T18:57:16.722Z,25.80
2018-08-04T18:59:44.847Z,25.70
2018-08-04T19:02:13.076Z,25.70
2018-08-04T19:04:41.155Z,25.60
2018-08-04T19:09:37.147Z,25.50
2018-08-04T19:12:05.235Z,25.30
2018-08-04T19:14:33.341Z,25.20
2018-08-04T19:17:01.467Z,25.30
2018-08-04T19:19:29.545Z,25.20
2018-08-04T19:21:57.659Z,25.20
2018-08-04T19:24:25.770Z,25.20
2018-08-04T19:26:54.339Z,25.20
2018-08-04T19:29:22.541Z,25.10
2018-08-04T19:31:51.482Z,25.10
2018-08-04T19:34:20.008Z,25.10
2018-08-04T19:36:48.151Z,25.00
2018-08-04T19:39:16.283Z,25.00
2018-08-04T19:41:44.343Z,25.00
2018-08-04T19:44:12.500Z,24.90
2018-08-04T19:46:40.635Z,25.00
2018-08-04T19:49:08.737Z,25.00
2018-08-04T19:51:36.822Z,25.00
2018-08-04T19:54:04.923Z,25.00
2018-08-04T19:56:33.047Z,24.90
2018-08-04T19:59:01.172Z,24.80
2018-08-04T20:01:29.307Z,24.90
2018-08-04T20:03:57.552Z,24.80
2018-08-04T20:06:25.660Z,24.80
2018-08-04T20:08:53.859Z,24.60
2018-08-04T20:11:21.964Z,24.50
2018-08-04T20:13:50.116Z,24.50
2018-08-04T20:16:18.241Z,24.50
2018-08-04T20:18:46.349Z,24.50
2018-08-04T20:21:14.484Z,24.40
2018-08-04T20:23:42.616Z,24.50
2018-08-04T20:26:11.804Z,24.50
2018-08-04T20:28:40.962Z,24.50
2018-08-04T20:33:37.089Z,24.30
2018-08-04T20:36:05.368Z,24.30
2018-08-04T20:38:33.540Z,24.30
2018-08-04T20:41:01.891Z,24.20
2018-08-04T20:43:30.020Z,24.30
2018-08-04T20:50:54.350Z,24.10
2018-08-04T20:53:22.435Z,24.10
2018-08-04T20:55:50.539Z,24.10
2018-08-04T20:58:19.289Z,24.10
2018-08-04T21:00:58.758Z,24.10
2018-08-04T21:03:26.892Z,24.10
2018-08-04T21:05:56.764Z,24.10
2018-08-04T21:08:25.417Z,24.10
2018-08-04T21:10:53.984Z,24.10
2018-08-04T21:13:24.615Z,24.00
2018-08-04T21:18:22.001Z,24.00
2018-08-04T21:23:19.290Z,24.00
2018-08-04T21:25:47.475Z,24.00
2018-08-04T21:28:15.643Z,24.00
2018-08-04T21:33:11.716Z,23.90
2018-08-04T21:35:40.436Z,23.90
2018-08-04T21:38:08.564Z,23.90
2018-08-04T21:40:36.691Z,23.90
2018-08-04T21:43:04.826Z,23.90
2018-08-04T21:48:01.837Z,23.80
2018-08-04T21:50:30.012Z,23.80
2018-08-04T21:52:59.807Z,23.80
2018-08-04T21:55:28.079Z,23.80
2018-08-04T21:57:56.194Z,23.90
2018-08-04T22:00:24.353Z,23.80
2018-08-04T22:02:57.473Z,23.70
2018-08-04T22:05:26.128Z,23.70
2018-08-04T22:08:06.748Z,23.60
2018-08-04T22:10:34.953Z,23.50
2018-08-04T22:13:04.215Z,23.40
2018-08-04T22:15:32.371Z,23.30
2018-08-04T22:18:00.496Z,23.20
2018-08-04T22:22:57.021Z,23.10
2018-08-04T22:25:26.379Z,23.00
2018-08-04T22:27:54.960Z,23.00
2018-08-04T22:30:23.348Z,23.00
2018-08-04T22:32:51.802Z,22.90
2018-08-04T22:35:20.127Z,22.80
2018-08-04T22:37:48.324Z,22.90
2018-08-04T22:40:17.155Z,22.90
2018-08-04T22:42:45.427Z,23.00
2018-08-04T22:46:03.028Z,22.90
2018-08-04T22:48:31.147Z,22.80
2018-08-04T22:50:59.215Z,22.60
2018-08-04T22:53:27.331Z,22.60
2018-08-04T22:55:55.511Z,22.50
2018-08-04T22:58:23.655Z,22.50
2018-08-04T23:00:51.787Z,22.50
2018-08-04T23:03:19.967Z,22.50
2018-08-04T23:05:48.143Z,22.50
2018-08-04T23:08:16.343Z,22.70
2018-08-04T23:10:44.977Z,22.70
2018-08-04T23:15:42.012Z,22.90
2018-08-04T23:18:10.440Z,23.00
2018-08-04T23:20:38.579Z,23.00
2018-08-04T23:23:07.454Z,22.90
2018-08-04T23:25:35.656Z,22.80
2018-08-04T23:28:03.927Z,22.80
2018-08-04T23:30:32.111Z,22.90
2018-08-04T23:33:00.272Z,22.90
2018-08-04T23:35:29.440Z,22.80
2018-08-04T23:37:58.159Z,22.90
2018-08-04T23:40:26.962Z,22.90
2018-08-04T23:45:23.778Z,23.00
2018-08-04T23:47:51.883Z,22.90
2018-08-04T23:50:20.101Z,22.90
2018-08-04T23:52:49.168Z,23.00
2018-08-04T23:55:17.369Z,23.00
2018-08-04T23:57:45.571Z,22.90
